Sunday, July 22, 2018, 12:40 AM EDT
Back to Local

KCQX, Chatham Municipal Airport

Location: Chatham, MA, United States Lat: 41.683
Local Time: 12:40 AM EDT ( 4:40 GMT) Lon: -70
Time Zone: US/Eastern Elev: 68 ft

Show me the last for .
Show Coded

Time T Td Feel RH Dir Speed Gust Alt SLP Vis Weather Sky Remarks
2018-07-21 23:52 65 62 - 90 80° 9 - 30.12 30.12 10 OVC004 None
2018-07-21 22:52 65 62 - 90 90° 7 - 30.12 30.12 10 OVC006 None
2018-07-21 21:52 65 61 - 87 100° 7 - 30.14 30.15 10 OVC009 None
2018-07-21 21:22 65 60 - 84 110° 7 - 30.15 - 10 BKN009 BKN070 None
2018-07-21 21:12 65 60 - 84 100° 7 - 30.15 - 10 SCT009 BKN070 None
2018-07-21 20:52 65 60 - 84 90° 7 - 30.14 30.14 10 FEW010 None
2018-07-21 20:21 65 60 - 84 100° 6 - 30.14 - 10 SCT010 None
2018-07-21 20:12 65 60 - 84 80° 7 - 30.14 - 10 BKN010 None
2018-07-21 19:52 65 59 - 81 100° 6 - 30.14 30.14 10 SCT011 6-hr Min Temp (8pm): 64.9°F
6-hr Max Temp (8pm): 70.0°F
2018-07-21 18:52 66 59 - 78 90° 9 - 30.13 30.14 10 FEW013 None
2018-07-21 18:35 66 59 - 78 80° 9 - 30.14 - 10 SCT013 None
2018-07-21 18:22 66 59 - 78 100° 12 - 30.14 - 10 BKN013 None
2018-07-21 18:13 66 59 - 78 110° 9 - 30.14 - 10 SCT014 None
2018-07-21 18:03 67 59 - 75 80° 9 - 30.14 - 10 BKN014 None
2018-07-21 17:52 67 59 - 75 100° 7 - 30.14 30.15 10 SCT014 None
2018-07-21 16:52 68 59 - 72 100° 9 - 30.15 30.15 10 BKN015 None
2018-07-21 15:52 69 59 - 70 80° 9 - 30.15 30.15 10 BKN015 None
2018-07-21 15:29 69 60 - 73 130° 9 - 30.15 - 10 OVC015 None
2018-07-21 15:02 70 60 - 70 120° 9 - 30.15 - 10 BKN013 None
2018-07-21 14:52 70 60 - 70 100° 9 - 30.15 30.15 10 SCT013 None
2018-07-21 14:41 69 60 - 73 80° 10 - 30.15 - 10 SCT013 None
2018-07-21 14:05 69 60 - 73 100° 9 - 30.16 - 10 SCT015 OVC021 None
2018-07-21 13:52 70 60 - 70 120° 9 - 30.17 30.17 10 BKN014 OVC021 6-hr Min Temp (2pm): 64.0°F
6-hr Max Temp (2pm): 72.0°F
2018-07-21 12:52 68 61 - 78 Variable 7 - 30.18 30.19 10 OVC010 None
2018-07-21 12:31 69 61 - 75 110° 7 - 30.18 - 10 BKN010 BKN014 OVC020 None
2018-07-21 12:20 69 61 - 75 130° 8 - 30.18 - 10 SCT014 BKN022 None
2018-07-21 11:52 71 60 76 68 100° 8 - 30.18 30.19 10 FEW016 None
2018-07-21 10:52 70 59 - 68 100° 8 - 30.19 30.19 10 FEW016 None
2018-07-21 10:27 69 59 - 70 50° 5 - 30.19 - 10 SCT021 None
2018-07-21 10:18 67 59 - 75 - Calm - 30.19 - 10 FEW008 SCT017 BKN022 None
2018-07-21 10:09 68 60 - 75 Variable 3 - 30.19 - 10 FEW010 BKN016 BKN020 None
2018-07-21 09:52 66 59 - 78 180° 8 - 30.19 30.19 10 OVC013 None
2018-07-21 09:32 65 59 - 81 80° 5 - 30.19 - 10 OVC013 None
2018-07-21 09:04 64 59 - 83 100° 7 - 30.19 - 10 BKN009 OVC013 None
2018-07-21 08:52 64 59 - 83 110° 9 - 30.19 30.19 10 OVC010 None
2018-07-21 08:12 65 59 - 81 110° 6 - 30.18 - 10 OVC010 None
2018-07-21 07:52 64 59 - 83 90° 7 - 30.18 30.18 10 OVC009 6-hr Min Temp (8am): 55.9°F
6-hr Max Temp (8am): 64.0°F
2018-07-21 07:36 63 60 - 90 100° 7 - 30.17 - 10 OVC008 None
2018-07-21 07:23 62 60 - 93 100° 7 - 30.17 - 10 OVC005 None
2018-07-21 06:54 61 60 - 96 90° 3 - 30.17 - 3 BR OVC002 None
2018-07-21 06:51 61 60 - 96 100° 5 - 30.17 30.17 1 BR OVC002 None
2018-07-21 06:50 61 61 - 100 100° 5 - 30.17 - 1 BR VV002 None
2018-07-21 06:09 59 58 - 96 - Calm - 30.17 - 0 FG OVC002 None
2018-07-21 06:02 59 58 - 96 130° 3 - 30.17 - 1 BR OVC002 Variable visibility
2018-07-21 05:52 59 58 - 96 140° 5 - 30.17 30.17 4 BR OVC002 None
2018-07-21 05:49 59 57 - 93 130° 6 - 30.17 - 3 BR OVC002 None
2018-07-21 05:46 59 57 - 93 Variable 5 - 30.17 - 1 BR VV002 None
2018-07-21 05:31 58 57 - 96 130° 6 - 30.17 - 0 FG VV002 None
2018-07-21 05:28 58 56 - 93 120° 6 - 30.17 - 1 BR FEW001 None
2018-07-21 04:52 56 54 - 93 - Calm - 30.16 30.16 10 CLR None
2018-07-21 03:52 57 55 - 93 - Calm - 30.17 30.17 10 CLR None
2018-07-21 02:52 57 55 - 93 - Calm - 30.17 30.17 10 CLR None
2018-07-21 01:52 58 55 - 90 - Calm - 30.17 30.17 10 CLR 6-hr Min Temp (2am): 57.0°F
6-hr Max Temp (2am): 66.0°F
2018-07-21 00:52 58 55 - 90 - Calm - 30.17 30.17 10 CLR 24-hr Min Temp (1am): 57.9°F
24-hr Max Temp (1am): 77.0°F

Support USWX by starting your Amazon purchase here.